<gpx creator="Cyclotour.ca" version="1.1" xmlns:gpsies="http://www.gpsies.com/GPX/1/0" xmlns:xsi="http://www.w3.org/2001/XMLSchema-instance" xmlns="http://www.topografix.com/GPX/1/1" xsi:schemaLocation="http://www.topografix.com/GPX/1/1 http://www.topografix.com/GPX/1/1/gpx.xsd http://www.gpsies.com/GPX/1/0 http://www.gpsies.com/gpsies.xsd">
<trk>
<name>Jour 5 - Parcours 55 km - Val Racine/Woburn/Val Racine (2018)</name>
<trkseg>
<trkpt lat="45.461410000" lon="-71.071960000">
<ele>0</ele>
<time>2026-09-04T06:22:09Z</time>
</trkpt>
<trkpt lat="45.461560000" lon="-71.072080000">
<ele>0</ele>
<time>2026-09-04T06:22:10Z</time>
</trkpt>
<trkpt lat="45.461940000" lon="-71.072290000">
<ele>0</ele>
<time>2026-09-04T06:22:11Z</time>
</trkpt>
<trkpt lat="45.462690000" lon="-71.072310000">
<ele>0</ele>
<time>2026-09-04T06:22:12Z</time>
</trkpt>
<trkpt lat="45.462690000" lon="-71.072310000">
<ele>0</ele>
<time>2026-09-04T06:22:13Z</time>
</trkpt>
<trkpt lat="45.462770000" lon="-71.072320000">
<ele>0</ele>
<time>2026-09-04T06:22:14Z</time>
</trkpt>
<trkpt lat="45.462930000" lon="-71.073700000">
<ele>0</ele>
<time>2026-09-04T06:22:15Z</time>
</trkpt>
<trkpt lat="45.462930000" lon="-71.073700000">
<ele>0</ele>
<time>2026-09-04T06:22:16Z</time>
</trkpt>
<trkpt lat="45.462950000" lon="-71.073840000">
<ele>0</ele>
<time>2026-09-04T06:22:17Z</time>
</trkpt>
<trkpt lat="45.462490000" lon="-71.074080000">
<ele>0</ele>
<time>2026-09-04T06:22:18Z</time>
</trkpt>
<trkpt lat="45.461900000" lon="-71.074470000">
<ele>0</ele>
<time>2026-09-04T06:22:19Z</time>
</trkpt>
<trkpt lat="45.460530000" lon="-71.075630000">
<ele>0</ele>
<time>2026-09-04T06:22:20Z</time>
</trkpt>
<trkpt lat="45.459570000" lon="-71.076820000">
<ele>0</ele>
<time>2026-09-04T06:22:21Z</time>
</trkpt>
<trkpt lat="45.458840000" lon="-71.077650000">
<ele>0</ele>
<time>2026-09-04T06:22:22Z</time>
</trkpt>
<trkpt lat="45.458840000" lon="-71.077650000">
<ele>0</ele>
<time>2026-09-04T06:22:23Z</time>
</trkpt>
<trkpt lat="45.458190000" lon="-71.078340000">
<ele>0</ele>
<time>2026-09-04T06:22:24Z</time>
</trkpt>
<trkpt lat="45.457660000" lon="-71.078790000">
<ele>0</ele>
<time>2026-09-04T06:22:25Z</time>
</trkpt>
<trkpt lat="45.456870000" lon="-71.079280000">
<ele>0</ele>
<time>2026-09-04T06:22:26Z</time>
</trkpt>
<trkpt lat="45.456410000" lon="-71.079470000">
<ele>0</ele>
<time>2026-09-04T06:22:27Z</time>
</trkpt>
<trkpt lat="45.456040000" lon="-71.079590000">
<ele>0</ele>
<time>2026-09-04T06:22:28Z</time>
</trkpt>
<trkpt lat="45.454080000" lon="-71.079550000">
<ele>0</ele>
<time>2026-09-04T06:22:29Z</time>
</trkpt>
<trkpt lat="45.451460000" lon="-71.079440000">
<ele>0</ele>
<time>2026-09-04T06:22:30Z</time>
</trkpt>
<trkpt lat="45.451460000" lon="-71.079440000">
<ele>0</ele>
<time>2026-09-04T06:22:31Z</time>
</trkpt>
<trkpt lat="45.448900000" lon="-71.079380000">
<ele>0</ele>
<time>2026-09-04T06:22:32Z</time>
</trkpt>
<trkpt lat="45.447420000" lon="-71.079390000">
<ele>0</ele>
<time>2026-09-04T06:22:33Z</time>
</trkpt>
<trkpt lat="45.445770000" lon="-71.079300000">
<ele>0</ele>
<time>2026-09-04T06:22:34Z</time>
</trkpt>
<trkpt lat="45.445190000" lon="-71.079220000">
<ele>0</ele>
<time>2026-09-04T06:22:35Z</time>
</trkpt>
<trkpt lat="45.444610000" lon="-71.079280000">
<ele>0</ele>
<time>2026-09-04T06:22:36Z</time>
</trkpt>
<trkpt lat="45.443720000" lon="-71.079310000">
<ele>0</ele>
<time>2026-09-04T06:22:37Z</time>
</trkpt>
<trkpt lat="45.442950000" lon="-71.079270000">
<ele>0</ele>
<time>2026-09-04T06:22:38Z</time>
</trkpt>
<trkpt lat="45.442640000" lon="-71.079130000">
<ele>0</ele>
<time>2026-09-04T06:22:39Z</time>
</trkpt>
<trkpt lat="45.441210000" lon="-71.078040000">
<ele>0</ele>
<time>2026-09-04T06:22:40Z</time>
</trkpt>
<trkpt lat="45.440840000" lon="-71.077730000">
<ele>0</ele>
<time>2026-09-04T06:22:41Z</time>
</trkpt>
<trkpt lat="45.440840000" lon="-71.077730000">
<ele>0</ele>
<time>2026-09-04T06:22:42Z</time>
</trkpt>
<trkpt lat="45.438760000" lon="-71.076040000">
<ele>0</ele>
<time>2026-09-04T06:22:43Z</time>
</trkpt>
<trkpt lat="45.438420000" lon="-71.075710000">
<ele>0</ele>
<time>2026-09-04T06:22:44Z</time>
</trkpt>
<trkpt lat="45.438350000" lon="-71.075150000">
<ele>0</ele>
<time>2026-09-04T06:22:45Z</time>
</trkpt>
<trkpt lat="45.438320000" lon="-71.072920000">
<ele>0</ele>
<time>2026-09-04T06:22:46Z</time>
</trkpt>
<trkpt lat="45.438320000" lon="-71.072920000">
<ele>0</ele>
<time>2026-09-04T06:22:47Z</time>
</trkpt>
<trkpt lat="45.438320000" lon="-71.072360000">
<ele>0</ele>
<time>2026-09-04T06:22:48Z</time>
</trkpt>
<trkpt lat="45.436940000" lon="-71.072390000">
<ele>0</ele>
<time>2026-09-04T06:22:49Z</time>
</trkpt>
<trkpt lat="45.436940000" lon="-71.072390000">
<ele>0</ele>
<time>2026-09-04T06:22:50Z</time>
</trkpt>
<trkpt lat="45.434350000" lon="-71.072490000">
<ele>0</ele>
<time>2026-09-04T06:22:51Z</time>
</trkpt>
<trkpt lat="45.431790000" lon="-71.072530000">
<ele>0</ele>
<time>2026-09-04T06:22:52Z</time>
</trkpt>
<trkpt lat="45.426030000" lon="-71.072480000">
<ele>0</ele>
<time>2026-09-04T06:22:53Z</time>
</trkpt>
<trkpt lat="45.424590000" lon="-71.072370000">
<ele>0</ele>
<time>2026-09-04T06:22:54Z</time>
</trkpt>
<trkpt lat="45.423870000" lon="-71.072350000">
<ele>0</ele>
<time>2026-09-04T06:22:55Z</time>
</trkpt>
<trkpt lat="45.421690000" lon="-71.072160000">
<ele>0</ele>
<time>2026-09-04T06:22:56Z</time>
</trkpt>
<trkpt lat="45.417050000" lon="-71.071870000">
<ele>0</ele>
<time>2026-09-04T06:22:57Z</time>
</trkpt>
<trkpt lat="45.416220000" lon="-71.071900000">
<ele>0</ele>
<time>2026-09-04T06:22:58Z</time>
</trkpt>
<trkpt lat="45.415700000" lon="-71.071990000">
<ele>0</ele>
<time>2026-09-04T06:22:59Z</time>
</trkpt>
<trkpt lat="45.413990000" lon="-71.072560000">
<ele>0</ele>
<time>2026-09-04T06:23:00Z</time>
</trkpt>
<trkpt lat="45.413040000" lon="-71.072780000">
<ele>0</ele>
<time>2026-09-04T06:23:01Z</time>
</trkpt>
<trkpt lat="45.412660000" lon="-71.072840000">
<ele>0</ele>
<time>2026-09-04T06:23:02Z</time>
</trkpt>
<trkpt lat="45.412660000" lon="-71.072840000">
<ele>0</ele>
<time>2026-09-04T06:23:03Z</time>
</trkpt>
<trkpt lat="45.406460000" lon="-71.073770000">
<ele>0</ele>
<time>2026-09-04T06:23:04Z</time>
</trkpt>
<trkpt lat="45.405710000" lon="-71.073800000">
<ele>0</ele>
<time>2026-09-04T06:23:05Z</time>
</trkpt>
<trkpt lat="45.405390000" lon="-71.073790000">
<ele>0</ele>
<time>2026-09-04T06:23:06Z</time>
</trkpt>
<trkpt lat="45.404950000" lon="-71.073720000">
<ele>0</ele>
<time>2026-09-04T06:23:07Z</time>
</trkpt>
<trkpt lat="45.404440000" lon="-71.073600000">
<ele>0</ele>
<time>2026-09-04T06:23:08Z</time>
</trkpt>
<trkpt lat="45.404440000" lon="-71.073600000">
<ele>0</ele>
<time>2026-09-04T06:23:09Z</time>
</trkpt>
<trkpt lat="45.403730000" lon="-71.073390000">
<ele>0</ele>
<time>2026-09-04T06:23:10Z</time>
</trkpt>
<trkpt lat="45.402710000" lon="-71.073000000">
<ele>0</ele>
<time>2026-09-04T06:23:11Z</time>
</trkpt>
<trkpt lat="45.402210000" lon="-71.072860000">
<ele>0</ele>
<time>2026-09-04T06:23:12Z</time>
</trkpt>
<trkpt lat="45.401790000" lon="-71.072790000">
<ele>0</ele>
<time>2026-09-04T06:23:13Z</time>
</trkpt>
<trkpt lat="45.401270000" lon="-71.072730000">
<ele>0</ele>
<time>2026-09-04T06:23:14Z</time>
</trkpt>
<trkpt lat="45.400510000" lon="-71.072690000">
<ele>0</ele>
<time>2026-09-04T06:23:15Z</time>
</trkpt>
<trkpt lat="45.398420000" lon="-71.072780000">
<ele>0</ele>
<time>2026-09-04T06:23:16Z</time>
</trkpt>
<trkpt lat="45.398420000" lon="-71.072780000">
<ele>0</ele>
<time>2026-09-04T06:23:17Z</time>
</trkpt>
<trkpt lat="45.396090000" lon="-71.072900000">
<ele>0</ele>
<time>2026-09-04T06:23:18Z</time>
</trkpt>
<trkpt lat="45.394570000" lon="-71.073030000">
<ele>0</ele>
<time>2026-09-04T06:23:19Z</time>
</trkpt>
<trkpt lat="45.394570000" lon="-71.071950000">
<ele>0</ele>
<time>2026-09-04T06:23:20Z</time>
</trkpt>
<trkpt lat="45.394570000" lon="-71.071950000">
<ele>0</ele>
<time>2026-09-04T06:23:21Z</time>
</trkpt>
<trkpt lat="45.394560000" lon="-71.065990000">
<ele>0</ele>
<time>2026-09-04T06:23:22Z</time>
</trkpt>
<trkpt lat="45.394550000" lon="-71.065630000">
<ele>0</ele>
<time>2026-09-04T06:23:23Z</time>
</trkpt>
<trkpt lat="45.394550000" lon="-71.064800000">
<ele>0</ele>
<time>2026-09-04T06:23:24Z</time>
</trkpt>
<trkpt lat="45.394500000" lon="-71.064380000">
<ele>0</ele>
<time>2026-09-04T06:23:25Z</time>
</trkpt>
<trkpt lat="45.394390000" lon="-71.063800000">
<ele>0</ele>
<time>2026-09-04T06:23:26Z</time>
</trkpt>
<trkpt lat="45.394160000" lon="-71.063150000">
<ele>0</ele>
<time>2026-09-04T06:23:27Z</time>
</trkpt>
<trkpt lat="45.393860000" lon="-71.062640000">
<ele>0</ele>
<time>2026-09-04T06:23:28Z</time>
</trkpt>
<trkpt lat="45.393650000" lon="-71.062320000">
<ele>0</ele>
<time>2026-09-04T06:23:29Z</time>
</trkpt>
<trkpt lat="45.393410000" lon="-71.062030000">
<ele>0</ele>
<time>2026-09-04T06:23:30Z</time>
</trkpt>
<trkpt lat="45.392990000" lon="-71.061690000">
<ele>0</ele>
<time>2026-09-04T06:23:31Z</time>
</trkpt>
<trkpt lat="45.392600000" lon="-71.061480000">
<ele>0</ele>
<time>2026-09-04T06:23:32Z</time>
</trkpt>
<trkpt lat="45.392320000" lon="-71.061410000">
<ele>0</ele>
<time>2026-09-04T06:23:33Z</time>
</trkpt>
<trkpt lat="45.392020000" lon="-71.061370000">
<ele>0</ele>
<time>2026-09-04T06:23:34Z</time>
</trkpt>
<trkpt lat="45.388550000" lon="-71.061320000">
<ele>0</ele>
<time>2026-09-04T06:23:35Z</time>
</trkpt>
<trkpt lat="45.388310000" lon="-71.061280000">
<ele>0</ele>
<time>2026-09-04T06:23:36Z</time>
</trkpt>
<trkpt lat="45.388130000" lon="-71.061220000">
<ele>0</ele>
<time>2026-09-04T06:23:37Z</time>
</trkpt>
<trkpt lat="45.387820000" lon="-71.061040000">
<ele>0</ele>
<time>2026-09-04T06:23:38Z</time>
</trkpt>
<trkpt lat="45.387630000" lon="-71.060840000">
<ele>0</ele>
<time>2026-09-04T06:23:39Z</time>
</trkpt>
<trkpt lat="45.387460000" lon="-71.060510000">
<ele>0</ele>
<time>2026-09-04T06:23:40Z</time>
</trkpt>
<trkpt lat="45.387340000" lon="-71.060240000">
<ele>0</ele>
<time>2026-09-04T06:23:41Z</time>
</trkpt>
<trkpt lat="45.387240000" lon="-71.059850000">
<ele>0</ele>
<time>2026-09-04T06:23:42Z</time>
</trkpt>
<trkpt lat="45.387180000" lon="-71.059250000">
<ele>0</ele>
<time>2026-09-04T06:23:43Z</time>
</trkpt>
<trkpt lat="45.387190000" lon="-71.058730000">
<ele>0</ele>
<time>2026-09-04T06:23:44Z</time>
</trkpt>
<trkpt lat="45.387190000" lon="-71.056170000">
<ele>0</ele>
<time>2026-09-04T06:23:45Z</time>
</trkpt>
<trkpt lat="45.387260000" lon="-71.041910000">
<ele>0</ele>
<time>2026-09-04T06:23:46Z</time>
</trkpt>
<trkpt lat="45.387260000" lon="-71.041910000">
<ele>0</ele>
<time>2026-09-04T06:23:47Z</time>
</trkpt>
<trkpt lat="45.387280000" lon="-71.037290000">
<ele>0</ele>
<time>2026-09-04T06:23:48Z</time>
</trkpt>
<trkpt lat="45.387300000" lon="-71.031140000">
<ele>0</ele>
<time>2026-09-04T06:23:49Z</time>
</trkpt>
<trkpt lat="45.387350000" lon="-71.022490000">
<ele>0</ele>
<time>2026-09-04T06:23:50Z</time>
</trkpt>
<trkpt lat="45.387310000" lon="-71.021020000">
<ele>0</ele>
<time>2026-09-04T06:23:51Z</time>
</trkpt>
<trkpt lat="45.387240000" lon="-71.020540000">
<ele>0</ele>
<time>2026-09-04T06:23:52Z</time>
</trkpt>
<trkpt lat="45.387080000" lon="-71.019480000">
<ele>0</ele>
<time>2026-09-04T06:23:53Z</time>
</trkpt>
<trkpt lat="45.386610000" lon="-71.017390000">
<ele>0</ele>
<time>2026-09-04T06:23:54Z</time>
</trkpt>
<trkpt lat="45.386220000" lon="-71.015650000">
<ele>0</ele>
<time>2026-09-04T06:23:55Z</time>
</trkpt>
<trkpt lat="45.386060000" lon="-71.014840000">
<ele>0</ele>
<time>2026-09-04T06:23:56Z</time>
</trkpt>
<trkpt lat="45.385750000" lon="-71.012070000">
<ele>0</ele>
<time>2026-09-04T06:23:57Z</time>
</trkpt>
<trkpt lat="45.384620000" lon="-71.002770000">
<ele>0</ele>
<time>2026-09-04T06:23:58Z</time>
</trkpt>
<trkpt lat="45.384470000" lon="-71.001410000">
<ele>0</ele>
<time>2026-09-04T06:23:59Z</time>
</trkpt>
<trkpt lat="45.384130000" lon="-70.999480000">
<ele>0</ele>
<time>2026-09-04T06:24:00Z</time>
</trkpt>
<trkpt lat="45.382490000" lon="-70.991140000">
<ele>0</ele>
<time>2026-09-04T06:24:01Z</time>
</trkpt>
<trkpt lat="45.380700000" lon="-70.982180000">
<ele>0</ele>
<time>2026-09-04T06:24:02Z</time>
</trkpt>
<trkpt lat="45.379910000" lon="-70.978220000">
<ele>0</ele>
<time>2026-09-04T06:24:03Z</time>
</trkpt>
<trkpt lat="45.379570000" lon="-70.976320000">
<ele>0</ele>
<time>2026-09-04T06:24:04Z</time>
</trkpt>
<trkpt lat="45.379460000" lon="-70.975830000">
<ele>0</ele>
<time>2026-09-04T06:24:05Z</time>
</trkpt>
<trkpt lat="45.379310000" lon="-70.975370000">
<ele>0</ele>
<time>2026-09-04T06:24:06Z</time>
</trkpt>
<trkpt lat="45.379060000" lon="-70.974720000">
<ele>0</ele>
<time>2026-09-04T06:24:07Z</time>
</trkpt>
<trkpt lat="45.378810000" lon="-70.974200000">
<ele>0</ele>
<time>2026-09-04T06:24:08Z</time>
</trkpt>
<trkpt lat="45.378570000" lon="-70.973770000">
<ele>0</ele>
<time>2026-09-04T06:24:09Z</time>
</trkpt>
<trkpt lat="45.377770000" lon="-70.972670000">
<ele>0</ele>
<time>2026-09-04T06:24:10Z</time>
</trkpt>
<trkpt lat="45.375010000" lon="-70.969210000">
<ele>0</ele>
<time>2026-09-04T06:24:11Z</time>
</trkpt>
<trkpt lat="45.374210000" lon="-70.968160000">
<ele>0</ele>
<time>2026-09-04T06:24:12Z</time>
</trkpt>
<trkpt lat="45.373720000" lon="-70.967450000">
<ele>0</ele>
<time>2026-09-04T06:24:13Z</time>
</trkpt>
<trkpt lat="45.373470000" lon="-70.967000000">
<ele>0</ele>
<time>2026-09-04T06:24:14Z</time>
</trkpt>
<trkpt lat="45.373310000" lon="-70.966620000">
<ele>0</ele>
<time>2026-09-04T06:24:15Z</time>
</trkpt>
<trkpt lat="45.373120000" lon="-70.966090000">
<ele>0</ele>
<time>2026-09-04T06:24:16Z</time>
</trkpt>
<trkpt lat="45.373010000" lon="-70.965710000">
<ele>0</ele>
<time>2026-09-04T06:24:17Z</time>
</trkpt>
<trkpt lat="45.372870000" lon="-70.964970000">
<ele>0</ele>
<time>2026-09-04T06:24:18Z</time>
</trkpt>
<trkpt lat="45.372790000" lon="-70.964100000">
<ele>0</ele>
<time>2026-09-04T06:24:19Z</time>
</trkpt>
<trkpt lat="45.372810000" lon="-70.963310000">
<ele>0</ele>
<time>2026-09-04T06:24:20Z</time>
</trkpt>
<trkpt lat="45.372930000" lon="-70.962520000">
<ele>0</ele>
<time>2026-09-04T06:24:21Z</time>
</trkpt>
<trkpt lat="45.373080000" lon="-70.961820000">
<ele>0</ele>
<time>2026-09-04T06:24:22Z</time>
</trkpt>
<trkpt lat="45.373420000" lon="-70.960750000">
<ele>0</ele>
<time>2026-09-04T06:24:23Z</time>
</trkpt>
<trkpt lat="45.374280000" lon="-70.958420000">
<ele>0</ele>
<time>2026-09-04T06:24:24Z</time>
</trkpt>
<trkpt lat="45.374890000" lon="-70.956870000">
<ele>0</ele>
<time>2026-09-04T06:24:25Z</time>
</trkpt>
<trkpt lat="45.375320000" lon="-70.955660000">
<ele>0</ele>
<time>2026-09-04T06:24:26Z</time>
</trkpt>
<trkpt lat="45.375610000" lon="-70.954720000">
<ele>0</ele>
<time>2026-09-04T06:24:27Z</time>
</trkpt>
<trkpt lat="45.375820000" lon="-70.953830000">
<ele>0</ele>
<time>2026-09-04T06:24:28Z</time>
</trkpt>
<trkpt lat="45.375930000" lon="-70.953150000">
<ele>0</ele>
<time>2026-09-04T06:24:29Z</time>
</trkpt>
<trkpt lat="45.376180000" lon="-70.950900000">
<ele>0</ele>
<time>2026-09-04T06:24:30Z</time>
</trkpt>
<trkpt lat="45.376640000" lon="-70.947140000">
<ele>0</ele>
<time>2026-09-04T06:24:31Z</time>
</trkpt>
<trkpt lat="45.376640000" lon="-70.947140000">
<ele>0</ele>
<time>2026-09-04T06:24:32Z</time>
</trkpt>
<trkpt lat="45.377040000" lon="-70.943530000">
<ele>0</ele>
<time>2026-09-04T06:24:33Z</time>
</trkpt>
<trkpt lat="45.377310000" lon="-70.941250000">
<ele>0</ele>
<time>2026-09-04T06:24:34Z</time>
</trkpt>
<trkpt lat="45.377390000" lon="-70.940320000">
<ele>0</ele>
<time>2026-09-04T06:24:35Z</time>
</trkpt>
<trkpt lat="45.377570000" lon="-70.938320000">
<ele>0</ele>
<time>2026-09-04T06:24:36Z</time>
</trkpt>
<trkpt lat="45.377740000" lon="-70.936970000">
<ele>0</ele>
<time>2026-09-04T06:24:37Z</time>
</trkpt>
<trkpt lat="45.377830000" lon="-70.935680000">
<ele>0</ele>
<time>2026-09-04T06:24:38Z</time>
</trkpt>
<trkpt lat="45.377700000" lon="-70.934760000">
<ele>0</ele>
<time>2026-09-04T06:24:39Z</time>
</trkpt>
<trkpt lat="45.377720000" lon="-70.932810000">
<ele>0</ele>
<time>2026-09-04T06:24:40Z</time>
</trkpt>
<trkpt lat="45.377760000" lon="-70.929770000">
<ele>0</ele>
<time>2026-09-04T06:24:41Z</time>
</trkpt>
<trkpt lat="45.377720000" lon="-70.929190000">
<ele>0</ele>
<time>2026-09-04T06:24:42Z</time>
</trkpt>
<trkpt lat="45.377550000" lon="-70.928100000">
<ele>0</ele>
<time>2026-09-04T06:24:43Z</time>
</trkpt>
<trkpt lat="45.377180000" lon="-70.926020000">
<ele>0</ele>
<time>2026-09-04T06:24:44Z</time>
</trkpt>
<trkpt lat="45.376860000" lon="-70.922990000">
<ele>0</ele>
<time>2026-09-04T06:24:45Z</time>
</trkpt>
<trkpt lat="45.376640000" lon="-70.920380000">
<ele>0</ele>
<time>2026-09-04T06:24:46Z</time>
</trkpt>
<trkpt lat="45.376520000" lon="-70.918670000">
<ele>0</ele>
<time>2026-09-04T06:24:47Z</time>
</trkpt>
<trkpt lat="45.376490000" lon="-70.917710000">
<ele>0</ele>
<time>2026-09-04T06:24:48Z</time>
</trkpt>
<trkpt lat="45.376540000" lon="-70.916330000">
<ele>0</ele>
<time>2026-09-04T06:24:49Z</time>
</trkpt>
<trkpt lat="45.376670000" lon="-70.915000000">
<ele>0</ele>
<time>2026-09-04T06:24:50Z</time>
</trkpt>
<trkpt lat="45.376980000" lon="-70.913080000">
<ele>0</ele>
<time>2026-09-04T06:24:51Z</time>
</trkpt>
<trkpt lat="45.377330000" lon="-70.910710000">
<ele>0</ele>
<time>2026-09-04T06:24:52Z</time>
</trkpt>
<trkpt lat="45.377450000" lon="-70.910250000">
<ele>0</ele>
<time>2026-09-04T06:24:53Z</time>
</trkpt>
<trkpt lat="45.377640000" lon="-70.909060000">
<ele>0</ele>
<time>2026-09-04T06:24:54Z</time>
</trkpt>
<trkpt lat="45.377690000" lon="-70.908030000">
<ele>0</ele>
<time>2026-09-04T06:24:55Z</time>
</trkpt>
<trkpt lat="45.377750000" lon="-70.903560000">
<ele>0</ele>
<time>2026-09-04T06:24:56Z</time>
</trkpt>
<trkpt lat="45.377770000" lon="-70.898240000">
<ele>0</ele>
<time>2026-09-04T06:24:57Z</time>
</trkpt>
<trkpt lat="45.377730000" lon="-70.894510000">
<ele>0</ele>
<time>2026-09-04T06:24:58Z</time>
</trkpt>
<trkpt lat="45.377830000" lon="-70.888600000">
<ele>0</ele>
<time>2026-09-04T06:24:59Z</time>
</trkpt>
<trkpt lat="45.377910000" lon="-70.888080000">
<ele>0</ele>
<time>2026-09-04T06:25:00Z</time>
</trkpt>
<trkpt lat="45.378090000" lon="-70.887580000">
<ele>0</ele>
<time>2026-09-04T06:25:01Z</time>
</trkpt>
<trkpt lat="45.378220000" lon="-70.887400000">
<ele>0</ele>
<time>2026-09-04T06:25:02Z</time>
</trkpt>
<trkpt lat="45.378350000" lon="-70.887260000">
<ele>0</ele>
<time>2026-09-04T06:25:03Z</time>
</trkpt>
<trkpt lat="45.378850000" lon="-70.886830000">
<ele>0</ele>
<time>2026-09-04T06:25:04Z</time>
</trkpt>
<trkpt lat="45.379910000" lon="-70.885740000">
<ele>0</ele>
<time>2026-09-04T06:25:05Z</time>
</trkpt>
<trkpt lat="45.380260000" lon="-70.885220000">
<ele>0</ele>
<time>2026-09-04T06:25:06Z</time>
</trkpt>
<trkpt lat="45.380640000" lon="-70.884280000">
<ele>0</ele>
<time>2026-09-04T06:25:07Z</time>
</trkpt>
<trkpt lat="45.380770000" lon="-70.883700000">
<ele>0</ele>
<time>2026-09-04T06:25:08Z</time>
</trkpt>
<trkpt lat="45.380830000" lon="-70.883270000">
<ele>0</ele>
<time>2026-09-04T06:25:09Z</time>
</trkpt>
<trkpt lat="45.380870000" lon="-70.882050000">
<ele>0</ele>
<time>2026-09-04T06:25:10Z</time>
</trkpt>
<trkpt lat="45.380890000" lon="-70.871930000">
<ele>0</ele>
<time>2026-09-04T06:25:11Z</time>
</trkpt>
<trkpt lat="45.380890000" lon="-70.871930000">
<ele>0</ele>
<time>2026-09-04T06:25:12Z</time>
</trkpt>
<trkpt lat="45.380890000" lon="-70.869500000">
<ele>0</ele>
<time>2026-09-04T06:25:13Z</time>
</trkpt>
<trkpt lat="45.380920000" lon="-70.868060000">
<ele>0</ele>
<time>2026-09-04T06:25:14Z</time>
</trkpt>
<trkpt lat="45.381090000" lon="-70.867910000">
<ele>0</ele>
<time>2026-09-04T06:25:15Z</time>
</trkpt>
<trkpt lat="45.381170000" lon="-70.867720000">
<ele>0</ele>
<time>2026-09-04T06:25:16Z</time>
</trkpt>
<trkpt lat="45.381170000" lon="-70.867720000">
<ele>0</ele>
<time>2026-09-04T06:25:17Z</time>
</trkpt>
<trkpt lat="45.381320000" lon="-70.867310000">
<ele>0</ele>
<time>2026-09-04T06:25:18Z</time>
</trkpt>
<trkpt lat="45.381510000" lon="-70.866940000">
<ele>0</ele>
<time>2026-09-04T06:25:19Z</time>
</trkpt>
<trkpt lat="45.382000000" lon="-70.866230000">
<ele>0</ele>
<time>2026-09-04T06:25:20Z</time>
</trkpt>
<trkpt lat="45.382890000" lon="-70.865200000">
<ele>0</ele>
<time>2026-09-04T06:25:21Z</time>
</trkpt>
<trkpt lat="45.383020000" lon="-70.865030000">
<ele>0</ele>
<time>2026-09-04T06:25:22Z</time>
</trkpt>
<trkpt lat="45.383020000" lon="-70.865030000">
<ele>0</ele>
<time>2026-09-04T06:25:23Z</time>
</trkpt>
<trkpt lat="45.384640000" lon="-70.862990000">
<ele>0</ele>
<time>2026-09-04T06:25:24Z</time>
</trkpt>
<trkpt lat="45.384880000" lon="-70.863210000">
<ele>0</ele>
<time>2026-09-04T06:25:25Z</time>
</trkpt>
<trkpt lat="45.385200000" lon="-70.863500000">
<ele>0</ele>
<time>2026-09-04T06:25:26Z</time>
</trkpt>
<trkpt lat="45.385490000" lon="-70.863790000">
<ele>0</ele>
<time>2026-09-04T06:25:27Z</time>
</trkpt>
<trkpt lat="45.385670000" lon="-70.863990000">
<ele>0</ele>
<time>2026-09-04T06:25:28Z</time>
</trkpt>
<trkpt lat="45.386800000" lon="-70.865590000">
<ele>0</ele>
<time>2026-09-04T06:25:29Z</time>
</trkpt>
<trkpt lat="45.387900000" lon="-70.867150000">
<ele>0</ele>
<time>2026-09-04T06:25:30Z</time>
</trkpt>
<trkpt lat="45.388190000" lon="-70.867560000">
<ele>0</ele>
<time>2026-09-04T06:25:31Z</time>
</trkpt>
<trkpt lat="45.388190000" lon="-70.867560000">
<ele>0</ele>
<time>2026-09-04T06:25:32Z</time>
</trkpt>
<trkpt lat="45.389150000" lon="-70.868930000">
<ele>0</ele>
<time>2026-09-04T06:25:33Z</time>
</trkpt>
<trkpt lat="45.389640000" lon="-70.869510000">
<ele>0</ele>
<time>2026-09-04T06:25:34Z</time>
</trkpt>
<trkpt lat="45.390140000" lon="-70.869950000">
<ele>0</ele>
<time>2026-09-04T06:25:35Z</time>
</trkpt>
<trkpt lat="45.390440000" lon="-70.870190000">
<ele>0</ele>
<time>2026-09-04T06:25:36Z</time>
</trkpt>
<trkpt lat="45.390840000" lon="-70.870430000">
<ele>0</ele>
<time>2026-09-04T06:25:37Z</time>
</trkpt>
<trkpt lat="45.391390000" lon="-70.870690000">
<ele>0</ele>
<time>2026-09-04T06:25:38Z</time>
</trkpt>
<trkpt lat="45.391780000" lon="-70.870820000">
<ele>0</ele>
<time>2026-09-04T06:25:39Z</time>
</trkpt>
<trkpt lat="45.392140000" lon="-70.870890000">
<ele>0</ele>
<time>2026-09-04T06:25:40Z</time>
</trkpt>
<trkpt lat="45.392360000" lon="-70.870920000">
<ele>0</ele>
<time>2026-09-04T06:25:41Z</time>
</trkpt>
<trkpt lat="45.393430000" lon="-70.870980000">
<ele>0</ele>
<time>2026-09-04T06:25:42Z</time>
</trkpt>
<trkpt lat="45.395410000" lon="-70.871050000">
<ele>0</ele>
<time>2026-09-04T06:25:43Z</time>
</trkpt>
<trkpt lat="45.395410000" lon="-70.871050000">
<ele>0</ele>
<time>2026-09-04T06:25:44Z</time>
</trkpt>
<trkpt lat="45.398060000" lon="-70.871160000">
<ele>0</ele>
<time>2026-09-04T06:25:45Z</time>
</trkpt>
<trkpt lat="45.398610000" lon="-70.871220000">
<ele>0</ele>
<time>2026-09-04T06:25:46Z</time>
</trkpt>
<trkpt lat="45.399090000" lon="-70.871310000">
<ele>0</ele>
<time>2026-09-04T06:25:47Z</time>
</trkpt>
<trkpt lat="45.399860000" lon="-70.871480000">
<ele>0</ele>
<time>2026-09-04T06:25:48Z</time>
</trkpt>
<trkpt lat="45.401120000" lon="-70.871770000">
<ele>0</ele>
<time>2026-09-04T06:25:49Z</time>
</trkpt>
<trkpt lat="45.402880000" lon="-70.872170000">
<ele>0</ele>
<time>2026-09-04T06:25:50Z</time>
</trkpt>
<trkpt lat="45.404880000" lon="-70.872640000">
<ele>0</ele>
<time>2026-09-04T06:25:51Z</time>
</trkpt>
<trkpt lat="45.406170000" lon="-70.872930000">
<ele>0</ele>
<time>2026-09-04T06:25:52Z</time>
</trkpt>
<trkpt lat="45.406170000" lon="-70.872930000">
<ele>0</ele>
<time>2026-09-04T06:25:53Z</time>
</trkpt>
<trkpt lat="45.406590000" lon="-70.873020000">
<ele>0</ele>
<time>2026-09-04T06:25:54Z</time>
</trkpt>
<trkpt lat="45.407070000" lon="-70.873090000">
<ele>0</ele>
<time>2026-09-04T06:25:55Z</time>
</trkpt>
<trkpt lat="45.407510000" lon="-70.873110000">
<ele>0</ele>
<time>2026-09-04T06:25:56Z</time>
</trkpt>
<trkpt lat="45.407950000" lon="-70.873090000">
<ele>0</ele>
<time>2026-09-04T06:25:57Z</time>
</trkpt>
<trkpt lat="45.409010000" lon="-70.872950000">
<ele>0</ele>
<time>2026-09-04T06:25:58Z</time>
</trkpt>
<trkpt lat="45.410150000" lon="-70.872780000">
<ele>0</ele>
<time>2026-09-04T06:25:59Z</time>
</trkpt>
<trkpt lat="45.410770000" lon="-70.872680000">
<ele>0</ele>
<time>2026-09-04T06:26:00Z</time>
</trkpt>
<trkpt lat="45.411430000" lon="-70.872590000">
<ele>0</ele>
<time>2026-09-04T06:26:01Z</time>
</trkpt>
<trkpt lat="45.412410000" lon="-70.872430000">
<ele>0</ele>
<time>2026-09-04T06:26:02Z</time>
</trkpt>
<trkpt lat="45.413900000" lon="-70.872170000">
<ele>0</ele>
<time>2026-09-04T06:26:03Z</time>
</trkpt>
<trkpt lat="45.415550000" lon="-70.871830000">
<ele>0</ele>
<time>2026-09-04T06:26:04Z</time>
</trkpt>
<trkpt lat="45.415920000" lon="-70.871810000">
<ele>0</ele>
<time>2026-09-04T06:26:05Z</time>
</trkpt>
<trkpt lat="45.416280000" lon="-70.871880000">
<ele>0</ele>
<time>2026-09-04T06:26:06Z</time>
</trkpt>
<trkpt lat="45.416660000" lon="-70.872020000">
<ele>0</ele>
<time>2026-09-04T06:26:07Z</time>
</trkpt>
<trkpt lat="45.417130000" lon="-70.872220000">
<ele>0</ele>
<time>2026-09-04T06:26:08Z</time>
</trkpt>
<trkpt lat="45.417540000" lon="-70.872400000">
<ele>0</ele>
<time>2026-09-04T06:26:09Z</time>
</trkpt>
<trkpt lat="45.417990000" lon="-70.872630000">
<ele>0</ele>
<time>2026-09-04T06:26:10Z</time>
</trkpt>
<trkpt lat="45.418470000" lon="-70.872950000">
<ele>0</ele>
<time>2026-09-04T06:26:11Z</time>
</trkpt>
<trkpt lat="45.418470000" lon="-70.872950000">
<ele>0</ele>
<time>2026-09-04T06:26:12Z</time>
</trkpt>
<trkpt lat="45.420170000" lon="-70.874190000">
<ele>0</ele>
<time>2026-09-04T06:26:13Z</time>
</trkpt>
<trkpt lat="45.420470000" lon="-70.874420000">
<ele>0</ele>
<time>2026-09-04T06:26:14Z</time>
</trkpt>
<trkpt lat="45.420710000" lon="-70.874650000">
<ele>0</ele>
<time>2026-09-04T06:26:15Z</time>
</trkpt>
<trkpt lat="45.421260000" lon="-70.875260000">
<ele>0</ele>
<time>2026-09-04T06:26:16Z</time>
</trkpt>
<trkpt lat="45.422280000" lon="-70.876310000">
<ele>0</ele>
<time>2026-09-04T06:26:17Z</time>
</trkpt>
<trkpt lat="45.423720000" lon="-70.877750000">
<ele>0</ele>
<time>2026-09-04T06:26:18Z</time>
</trkpt>
<trkpt lat="45.424050000" lon="-70.878040000">
<ele>0</ele>
<time>2026-09-04T06:26:19Z</time>
</trkpt>
<trkpt lat="45.424260000" lon="-70.878200000">
<ele>0</ele>
<time>2026-09-04T06:26:20Z</time>
</trkpt>
<trkpt lat="45.424700000" lon="-70.878500000">
<ele>0</ele>
<time>2026-09-04T06:26:21Z</time>
</trkpt>
<trkpt lat="45.425750000" lon="-70.879120000">
<ele>0</ele>
<time>2026-09-04T06:26:22Z</time>
</trkpt>
<trkpt lat="45.426270000" lon="-70.879390000">
<ele>0</ele>
<time>2026-09-04T06:26:23Z</time>
</trkpt>
<trkpt lat="45.426750000" lon="-70.879540000">
<ele>0</ele>
<time>2026-09-04T06:26:24Z</time>
</trkpt>
<trkpt lat="45.427800000" lon="-70.879810000">
<ele>0</ele>
<time>2026-09-04T06:26:25Z</time>
</trkpt>
<trkpt lat="45.428640000" lon="-70.880020000">
<ele>0</ele>
<time>2026-09-04T06:26:26Z</time>
</trkpt>
<trkpt lat="45.428930000" lon="-70.880110000">
<ele>0</ele>
<time>2026-09-04T06:26:27Z</time>
</trkpt>
<trkpt lat="45.429200000" lon="-70.880220000">
<ele>0</ele>
<time>2026-09-04T06:26:28Z</time>
</trkpt>
<trkpt lat="45.429480000" lon="-70.880370000">
<ele>0</ele>
<time>2026-09-04T06:26:29Z</time>
</trkpt>
<trkpt lat="45.429730000" lon="-70.880530000">
<ele>0</ele>
<time>2026-09-04T06:26:30Z</time>
</trkpt>
<trkpt lat="45.430050000" lon="-70.880740000">
<ele>0</ele>
<time>2026-09-04T06:26:31Z</time>
</trkpt>
<trkpt lat="45.430050000" lon="-70.880740000">
<ele>0</ele>
<time>2026-09-04T06:26:32Z</time>
</trkpt>
<trkpt lat="45.430620000" lon="-70.881130000">
<ele>0</ele>
<time>2026-09-04T06:26:33Z</time>
</trkpt>
<trkpt lat="45.430920000" lon="-70.881310000">
<ele>0</ele>
<time>2026-09-04T06:26:34Z</time>
</trkpt>
<trkpt lat="45.431370000" lon="-70.881540000">
<ele>0</ele>
<time>2026-09-04T06:26:35Z</time>
</trkpt>
<trkpt lat="45.431950000" lon="-70.881780000">
<ele>0</ele>
<time>2026-09-04T06:26:36Z</time>
</trkpt>
<trkpt lat="45.432520000" lon="-70.882040000">
<ele>0</ele>
<time>2026-09-04T06:26:37Z</time>
</trkpt>
<trkpt lat="45.432930000" lon="-70.882240000">
<ele>0</ele>
<time>2026-09-04T06:26:38Z</time>
</trkpt>
<trkpt lat="45.433650000" lon="-70.882560000">
<ele>0</ele>
<time>2026-09-04T06:26:39Z</time>
</trkpt>
<trkpt lat="45.435200000" lon="-70.883170000">
<ele>0</ele>
<time>2026-09-04T06:26:40Z</time>
</trkpt>
<trkpt lat="45.436220000" lon="-70.883590000">
<ele>0</ele>
<time>2026-09-04T06:26:41Z</time>
</trkpt>
<trkpt lat="45.436920000" lon="-70.883930000">
<ele>0</ele>
<time>2026-09-04T06:26:42Z</time>
</trkpt>
<trkpt lat="45.437810000" lon="-70.884420000">
<ele>0</ele>
<time>2026-09-04T06:26:43Z</time>
</trkpt>
<trkpt lat="45.438550000" lon="-70.884810000">
<ele>0</ele>
<time>2026-09-04T06:26:44Z</time>
</trkpt>
<trkpt lat="45.439570000" lon="-70.885380000">
<ele>0</ele>
<time>2026-09-04T06:26:45Z</time>
</trkpt>
<trkpt lat="45.440720000" lon="-70.886050000">
<ele>0</ele>
<time>2026-09-04T06:26:46Z</time>
</trkpt>
<trkpt lat="45.441100000" lon="-70.886210000">
<ele>0</ele>
<time>2026-09-04T06:26:47Z</time>
</trkpt>
<trkpt lat="45.441380000" lon="-70.886280000">
<ele>0</ele>
<time>2026-09-04T06:26:48Z</time>
</trkpt>
<trkpt lat="45.441670000" lon="-70.886330000">
<ele>0</ele>
<time>2026-09-04T06:26:49Z</time>
</trkpt>
<trkpt lat="45.442250000" lon="-70.886380000">
<ele>0</ele>
<time>2026-09-04T06:26:50Z</time>
</trkpt>
<trkpt lat="45.442780000" lon="-70.886430000">
<ele>0</ele>
<time>2026-09-04T06:26:51Z</time>
</trkpt>
<trkpt lat="45.443120000" lon="-70.886550000">
<ele>0</ele>
<time>2026-09-04T06:26:52Z</time>
</trkpt>
<trkpt lat="45.443230000" lon="-70.886610000">
<ele>0</ele>
<time>2026-09-04T06:26:53Z</time>
</trkpt>
<trkpt lat="45.443230000" lon="-70.886610000">
<ele>0</ele>
<time>2026-09-04T06:26:54Z</time>
</trkpt>
<trkpt lat="45.444640000" lon="-70.887430000">
<ele>0</ele>
<time>2026-09-04T06:26:55Z</time>
</trkpt>
<trkpt lat="45.446730000" lon="-70.888720000">
<ele>0</ele>
<time>2026-09-04T06:26:56Z</time>
</trkpt>
<trkpt lat="45.447160000" lon="-70.888970000">
<ele>0</ele>
<time>2026-09-04T06:26:57Z</time>
</trkpt>
<trkpt lat="45.447750000" lon="-70.889280000">
<ele>0</ele>
<time>2026-09-04T06:26:58Z</time>
</trkpt>
<trkpt lat="45.448490000" lon="-70.889610000">
<ele>0</ele>
<time>2026-09-04T06:26:59Z</time>
</trkpt>
<trkpt lat="45.451020000" lon="-70.890650000">
<ele>0</ele>
<time>2026-09-04T06:27:00Z</time>
</trkpt>
<trkpt lat="45.451420000" lon="-70.890780000">
<ele>0</ele>
<time>2026-09-04T06:27:01Z</time>
</trkpt>
<trkpt lat="45.452960000" lon="-70.891040000">
<ele>0</ele>
<time>2026-09-04T06:27:02Z</time>
</trkpt>
<trkpt lat="45.453980000" lon="-70.891210000">
<ele>0</ele>
<time>2026-09-04T06:27:03Z</time>
</trkpt>
<trkpt lat="45.454610000" lon="-70.891290000">
<ele>0</ele>
<time>2026-09-04T06:27:04Z</time>
</trkpt>
<trkpt lat="45.456130000" lon="-70.891220000">
<ele>0</ele>
<time>2026-09-04T06:27:05Z</time>
</trkpt>
<trkpt lat="45.456870000" lon="-70.891190000">
<ele>0</ele>
<time>2026-09-04T06:27:06Z</time>
</trkpt>
<trkpt lat="45.456870000" lon="-70.891190000">
<ele>0</ele>
<time>2026-09-04T06:27:07Z</time>
</trkpt>
<trkpt lat="45.457210000" lon="-70.891200000">
<ele>0</ele>
<time>2026-09-04T06:27:08Z</time>
</trkpt>
<trkpt lat="45.457500000" lon="-70.891240000">
<ele>0</ele>
<time>2026-09-04T06:27:09Z</time>
</trkpt>
<trkpt lat="45.457950000" lon="-70.891380000">
<ele>0</ele>
<time>2026-09-04T06:27:10Z</time>
</trkpt>
<trkpt lat="45.458450000" lon="-70.891610000">
<ele>0</ele>
<time>2026-09-04T06:27:11Z</time>
</trkpt>
<trkpt lat="45.458760000" lon="-70.891810000">
<ele>0</ele>
<time>2026-09-04T06:27:12Z</time>
</trkpt>
<trkpt lat="45.459060000" lon="-70.892050000">
<ele>0</ele>
<time>2026-09-04T06:27:13Z</time>
</trkpt>
<trkpt lat="45.460330000" lon="-70.893210000">
<ele>0</ele>
<time>2026-09-04T06:27:14Z</time>
</trkpt>
<trkpt lat="45.460600000" lon="-70.893420000">
<ele>0</ele>
<time>2026-09-04T06:27:15Z</time>
</trkpt>
<trkpt lat="45.460940000" lon="-70.893600000">
<ele>0</ele>
<time>2026-09-04T06:27:16Z</time>
</trkpt>
<trkpt lat="45.461330000" lon="-70.893730000">
<ele>0</ele>
<time>2026-09-04T06:27:17Z</time>
</trkpt>
<trkpt lat="45.462790000" lon="-70.893930000">
<ele>0</ele>
<time>2026-09-04T06:27:18Z</time>
</trkpt>
<trkpt lat="45.464100000" lon="-70.894110000">
<ele>0</ele>
<time>2026-09-04T06:27:19Z</time>
</trkpt>
<trkpt lat="45.464510000" lon="-70.894200000">
<ele>0</ele>
<time>2026-09-04T06:27:20Z</time>
</trkpt>
<trkpt lat="45.464860000" lon="-70.894320000">
<ele>0</ele>
<time>2026-09-04T06:27:21Z</time>
</trkpt>
<trkpt lat="45.466090000" lon="-70.894850000">
<ele>0</ele>
<time>2026-09-04T06:27:22Z</time>
</trkpt>
<trkpt lat="45.466920000" lon="-70.895180000">
<ele>0</ele>
<time>2026-09-04T06:27:23Z</time>
</trkpt>
<trkpt lat="45.467410000" lon="-70.895310000">
<ele>0</ele>
<time>2026-09-04T06:27:24Z</time>
</trkpt>
<trkpt lat="45.467910000" lon="-70.895390000">
<ele>0</ele>
<time>2026-09-04T06:27:25Z</time>
</trkpt>
<trkpt lat="45.469060000" lon="-70.895480000">
<ele>0</ele>
<time>2026-09-04T06:27:26Z</time>
</trkpt>
<trkpt lat="45.470690000" lon="-70.895620000">
<ele>0</ele>
<time>2026-09-04T06:27:27Z</time>
</trkpt>
<trkpt lat="45.472240000" lon="-70.895910000">
<ele>0</ele>
<time>2026-09-04T06:27:28Z</time>
</trkpt>
<trkpt lat="45.472860000" lon="-70.895940000">
<ele>0</ele>
<time>2026-09-04T06:27:29Z</time>
</trkpt>
<trkpt lat="45.473350000" lon="-70.895860000">
<ele>0</ele>
<time>2026-09-04T06:27:30Z</time>
</trkpt>
<trkpt lat="45.473720000" lon="-70.895730000">
<ele>0</ele>
<time>2026-09-04T06:27:31Z</time>
</trkpt>
<trkpt lat="45.473720000" lon="-70.895730000">
<ele>0</ele>
<time>2026-09-04T06:27:32Z</time>
</trkpt>
<trkpt lat="45.473950000" lon="-70.895610000">
<ele>0</ele>
<time>2026-09-04T06:27:33Z</time>
</trkpt>
<trkpt lat="45.474180000" lon="-70.895450000">
<ele>0</ele>
<time>2026-09-04T06:27:34Z</time>
</trkpt>
<trkpt lat="45.475610000" lon="-70.894400000">
<ele>0</ele>
<time>2026-09-04T06:27:35Z</time>
</trkpt>
<trkpt lat="45.476050000" lon="-70.894150000">
<ele>0</ele>
<time>2026-09-04T06:27:36Z</time>
</trkpt>
<trkpt lat="45.476340000" lon="-70.894060000">
<ele>0</ele>
<time>2026-09-04T06:27:37Z</time>
</trkpt>
<trkpt lat="45.476570000" lon="-70.894020000">
<ele>0</ele>
<time>2026-09-04T06:27:38Z</time>
</trkpt>
<trkpt lat="45.476960000" lon="-70.894030000">
<ele>0</ele>
<time>2026-09-04T06:27:39Z</time>
</trkpt>
<trkpt lat="45.477180000" lon="-70.894070000">
<ele>0</ele>
<time>2026-09-04T06:27:40Z</time>
</trkpt>
<trkpt lat="45.477800000" lon="-70.894240000">
<ele>0</ele>
<time>2026-09-04T06:27:41Z</time>
</trkpt>
<trkpt lat="45.478150000" lon="-70.894340000">
<ele>0</ele>
<time>2026-09-04T06:27:42Z</time>
</trkpt>
<trkpt lat="45.478570000" lon="-70.894400000">
<ele>0</ele>
<time>2026-09-04T06:27:43Z</time>
</trkpt>
<trkpt lat="45.479230000" lon="-70.894470000">
<ele>0</ele>
<time>2026-09-04T06:27:44Z</time>
</trkpt>
<trkpt lat="45.479580000" lon="-70.894570000">
<ele>0</ele>
<time>2026-09-04T06:27:45Z</time>
</trkpt>
<trkpt lat="45.480200000" lon="-70.894920000">
<ele>0</ele>
<time>2026-09-04T06:27:46Z</time>
</trkpt>
<trkpt lat="45.481260000" lon="-70.895590000">
<ele>0</ele>
<time>2026-09-04T06:27:47Z</time>
</trkpt>
<trkpt lat="45.482530000" lon="-70.896450000">
<ele>0</ele>
<time>2026-09-04T06:27:48Z</time>
</trkpt>
<trkpt lat="45.483950000" lon="-70.897370000">
<ele>0</ele>
<time>2026-09-04T06:27:49Z</time>
</trkpt>
<trkpt lat="45.484170000" lon="-70.897530000">
<ele>0</ele>
<time>2026-09-04T06:27:50Z</time>
</trkpt>
<trkpt lat="45.484600000" lon="-70.897900000">
<ele>0</ele>
<time>2026-09-04T06:27:51Z</time>
</trkpt>
<trkpt lat="45.484950000" lon="-70.898250000">
<ele>0</ele>
<time>2026-09-04T06:27:52Z</time>
</trkpt>
<trkpt lat="45.485160000" lon="-70.898550000">
<ele>0</ele>
<time>2026-09-04T06:27:53Z</time>
</trkpt>
<trkpt lat="45.485420000" lon="-70.898990000">
<ele>0</ele>
<time>2026-09-04T06:27:54Z</time>
</trkpt>
<trkpt lat="45.485420000" lon="-70.898990000">
<ele>0</ele>
<time>2026-09-04T06:27:55Z</time>
</trkpt>
<trkpt lat="45.485580000" lon="-70.899290000">
<ele>0</ele>
<time>2026-09-04T06:27:56Z</time>
</trkpt>
<trkpt lat="45.485650000" lon="-70.899530000">
<ele>0</ele>
<time>2026-09-04T06:27:57Z</time>
</trkpt>
<trkpt lat="45.485670000" lon="-70.899640000">
<ele>0</ele>
<time>2026-09-04T06:27:58Z</time>
</trkpt>
<trkpt lat="45.485660000" lon="-70.899750000">
<ele>0</ele>
<time>2026-09-04T06:27:59Z</time>
</trkpt>
<trkpt lat="45.485510000" lon="-70.900390000">
<ele>0</ele>
<time>2026-09-04T06:28:00Z</time>
</trkpt>
<trkpt lat="45.485500000" lon="-70.900460000">
<ele>0</ele>
<time>2026-09-04T06:28:01Z</time>
</trkpt>
<trkpt lat="45.485500000" lon="-70.900460000">
<ele>0</ele>
<time>2026-09-04T06:28:02Z</time>
</trkpt>
<trkpt lat="45.485480000" lon="-70.900590000">
<ele>0</ele>
<time>2026-09-04T06:28:03Z</time>
</trkpt>
<trkpt lat="45.485510000" lon="-70.900780000">
<ele>0</ele>
<time>2026-09-04T06:28:04Z</time>
</trkpt>
<trkpt lat="45.486460000" lon="-70.903420000">
<ele>0</ele>
<time>2026-09-04T06:28:05Z</time>
</trkpt>
<trkpt lat="45.486520000" lon="-70.903680000">
<ele>0</ele>
<time>2026-09-04T06:28:06Z</time>
</trkpt>
<trkpt lat="45.486520000" lon="-70.903680000">
<ele>0</ele>
<time>2026-09-04T06:28:07Z</time>
</trkpt>
<trkpt lat="45.486510000" lon="-70.903890000">
<ele>0</ele>
<time>2026-09-04T06:28:08Z</time>
</trkpt>
<trkpt lat="45.486220000" lon="-70.905280000">
<ele>0</ele>
<time>2026-09-04T06:28:09Z</time>
</trkpt>
<trkpt lat="45.486180000" lon="-70.905640000">
<ele>0</ele>
<time>2026-09-04T06:28:10Z</time>
</trkpt>
<trkpt lat="45.486170000" lon="-70.905930000">
<ele>0</ele>
<time>2026-09-04T06:28:11Z</time>
</trkpt>
<trkpt lat="45.486210000" lon="-70.906540000">
<ele>0</ele>
<time>2026-09-04T06:28:12Z</time>
</trkpt>
<trkpt lat="45.486200000" lon="-70.906950000">
<ele>0</ele>
<time>2026-09-04T06:28:13Z</time>
</trkpt>
<trkpt lat="45.486070000" lon="-70.908190000">
<ele>0</ele>
<time>2026-09-04T06:28:14Z</time>
</trkpt>
<trkpt lat="45.485860000" lon="-70.910070000">
<ele>0</ele>
<time>2026-09-04T06:28:15Z</time>
</trkpt>
<trkpt lat="45.485760000" lon="-70.910490000">
<ele>0</ele>
<time>2026-09-04T06:28:16Z</time>
</trkpt>
<trkpt lat="45.485430000" lon="-70.911270000">
<ele>0</ele>
<time>2026-09-04T06:28:17Z</time>
</trkpt>
<trkpt lat="45.484130000" lon="-70.914060000">
<ele>0</ele>
<time>2026-09-04T06:28:18Z</time>
</trkpt>
<trkpt lat="45.484130000" lon="-70.914060000">
<ele>0</ele>
<time>2026-09-04T06:28:19Z</time>
</trkpt>
<trkpt lat="45.483790000" lon="-70.914830000">
<ele>0</ele>
<time>2026-09-04T06:28:20Z</time>
</trkpt>
<trkpt lat="45.483560000" lon="-70.915570000">
<ele>0</ele>
<time>2026-09-04T06:28:21Z</time>
</trkpt>
<trkpt lat="45.483500000" lon="-70.915900000">
<ele>0</ele>
<time>2026-09-04T06:28:22Z</time>
</trkpt>
<trkpt lat="45.483300000" lon="-70.917810000">
<ele>0</ele>
<time>2026-09-04T06:28:23Z</time>
</trkpt>
<trkpt lat="45.483270000" lon="-70.918230000">
<ele>0</ele>
<time>2026-09-04T06:28:24Z</time>
</trkpt>
<trkpt lat="45.483270000" lon="-70.918610000">
<ele>0</ele>
<time>2026-09-04T06:28:25Z</time>
</trkpt>
<trkpt lat="45.483320000" lon="-70.919130000">
<ele>0</ele>
<time>2026-09-04T06:28:26Z</time>
</trkpt>
<trkpt lat="45.483370000" lon="-70.919460000">
<ele>0</ele>
<time>2026-09-04T06:28:27Z</time>
</trkpt>
<trkpt lat="45.483490000" lon="-70.919950000">
<ele>0</ele>
<time>2026-09-04T06:28:28Z</time>
</trkpt>
<trkpt lat="45.484390000" lon="-70.922220000">
<ele>0</ele>
<time>2026-09-04T06:28:29Z</time>
</trkpt>
<trkpt lat="45.484940000" lon="-70.923500000">
<ele>0</ele>
<time>2026-09-04T06:28:30Z</time>
</trkpt>
<trkpt lat="45.485160000" lon="-70.923880000">
<ele>0</ele>
<time>2026-09-04T06:28:31Z</time>
</trkpt>
<trkpt lat="45.485680000" lon="-70.924550000">
<ele>0</ele>
<time>2026-09-04T06:28:32Z</time>
</trkpt>
<trkpt lat="45.486990000" lon="-70.926030000">
<ele>0</ele>
<time>2026-09-04T06:28:33Z</time>
</trkpt>
<trkpt lat="45.487060000" lon="-70.926230000">
<ele>0</ele>
<time>2026-09-04T06:28:34Z</time>
</trkpt>
<trkpt lat="45.487180000" lon="-70.926490000">
<ele>0</ele>
<time>2026-09-04T06:28:35Z</time>
</trkpt>
<trkpt lat="45.487290000" lon="-70.926800000">
<ele>0</ele>
<time>2026-09-04T06:28:36Z</time>
</trkpt>
<trkpt lat="45.487360000" lon="-70.927230000">
<ele>0</ele>
<time>2026-09-04T06:28:37Z</time>
</trkpt>
<trkpt lat="45.487420000" lon="-70.927710000">
<ele>0</ele>
<time>2026-09-04T06:28:38Z</time>
</trkpt>
<trkpt lat="45.487500000" lon="-70.928670000">
<ele>0</ele>
<time>2026-09-04T06:28:39Z</time>
</trkpt>
<trkpt lat="45.487550000" lon="-70.930060000">
<ele>0</ele>
<time>2026-09-04T06:28:40Z</time>
</trkpt>
<trkpt lat="45.487550000" lon="-70.930060000">
<ele>0</ele>
<time>2026-09-04T06:28:41Z</time>
</trkpt>
<trkpt lat="45.487570000" lon="-70.931870000">
<ele>0</ele>
<time>2026-09-04T06:28:42Z</time>
</trkpt>
<trkpt lat="45.487540000" lon="-70.932800000">
<ele>0</ele>
<time>2026-09-04T06:28:43Z</time>
</trkpt>
<trkpt lat="45.487560000" lon="-70.933210000">
<ele>0</ele>
<time>2026-09-04T06:28:44Z</time>
</trkpt>
<trkpt lat="45.487570000" lon="-70.933430000">
<ele>0</ele>
<time>2026-09-04T06:28:45Z</time>
</trkpt>
<trkpt lat="45.487670000" lon="-70.933950000">
<ele>0</ele>
<time>2026-09-04T06:28:46Z</time>
</trkpt>
<trkpt lat="45.487750000" lon="-70.934230000">
<ele>0</ele>
<time>2026-09-04T06:28:47Z</time>
</trkpt>
<trkpt lat="45.487840000" lon="-70.934740000">
<ele>0</ele>
<time>2026-09-04T06:28:48Z</time>
</trkpt>
<trkpt lat="45.487850000" lon="-70.935420000">
<ele>0</ele>
<time>2026-09-04T06:28:49Z</time>
</trkpt>
<trkpt lat="45.487740000" lon="-70.936590000">
<ele>0</ele>
<time>2026-09-04T06:28:50Z</time>
</trkpt>
<trkpt lat="45.487740000" lon="-70.937420000">
<ele>0</ele>
<time>2026-09-04T06:28:51Z</time>
</trkpt>
<trkpt lat="45.487610000" lon="-70.938690000">
<ele>0</ele>
<time>2026-09-04T06:28:52Z</time>
</trkpt>
<trkpt lat="45.487580000" lon="-70.939520000">
<ele>0</ele>
<time>2026-09-04T06:28:53Z</time>
</trkpt>
<trkpt lat="45.487490000" lon="-70.947200000">
<ele>0</ele>
<time>2026-09-04T06:28:54Z</time>
</trkpt>
<trkpt lat="45.487490000" lon="-70.947200000">
<ele>0</ele>
<time>2026-09-04T06:28:55Z</time>
</trkpt>
<trkpt lat="45.487470000" lon="-70.950220000">
<ele>0</ele>
<time>2026-09-04T06:28:56Z</time>
</trkpt>
<trkpt lat="45.487370000" lon="-70.953980000">
<ele>0</ele>
<time>2026-09-04T06:28:57Z</time>
</trkpt>
<trkpt lat="45.487410000" lon="-70.957750000">
<ele>0</ele>
<time>2026-09-04T06:28:58Z</time>
</trkpt>
<trkpt lat="45.487390000" lon="-70.959230000">
<ele>0</ele>
<time>2026-09-04T06:28:59Z</time>
</trkpt>
<trkpt lat="45.487410000" lon="-70.960470000">
<ele>0</ele>
<time>2026-09-04T06:29:00Z</time>
</trkpt>
<trkpt lat="45.487370000" lon="-70.962480000">
<ele>0</ele>
<time>2026-09-04T06:29:01Z</time>
</trkpt>
<trkpt lat="45.487290000" lon="-70.966400000">
<ele>0</ele>
<time>2026-09-04T06:29:02Z</time>
</trkpt>
<trkpt lat="45.487260000" lon="-70.969300000">
<ele>0</ele>
<time>2026-09-04T06:29:03Z</time>
</trkpt>
<trkpt lat="45.487260000" lon="-70.969300000">
<ele>0</ele>
<time>2026-09-04T06:29:04Z</time>
</trkpt>
<trkpt lat="45.487200000" lon="-70.973470000">
<ele>0</ele>
<time>2026-09-04T06:29:05Z</time>
</trkpt>
<trkpt lat="45.487140000" lon="-70.975230000">
<ele>0</ele>
<time>2026-09-04T06:29:06Z</time>
</trkpt>
<trkpt lat="45.487110000" lon="-70.976730000">
<ele>0</ele>
<time>2026-09-04T06:29:07Z</time>
</trkpt>
<trkpt lat="45.487050000" lon="-70.980880000">
<ele>0</ele>
<time>2026-09-04T06:29:08Z</time>
</trkpt>
<trkpt lat="45.486990000" lon="-70.982110000">
<ele>0</ele>
<time>2026-09-04T06:29:09Z</time>
</trkpt>
<trkpt lat="45.486980000" lon="-70.986720000">
<ele>0</ele>
<time>2026-09-04T06:29:10Z</time>
</trkpt>
<trkpt lat="45.486900000" lon="-70.989290000">
<ele>0</ele>
<time>2026-09-04T06:29:11Z</time>
</trkpt>
<trkpt lat="45.486690000" lon="-70.991260000">
<ele>0</ele>
<time>2026-09-04T06:29:12Z</time>
</trkpt>
<trkpt lat="45.486230000" lon="-70.995040000">
<ele>0</ele>
<time>2026-09-04T06:29:13Z</time>
</trkpt>
<trkpt lat="45.485030000" lon="-71.002880000">
<ele>0</ele>
<time>2026-09-04T06:29:14Z</time>
</trkpt>
<trkpt lat="45.485000000" lon="-71.003070000">
<ele>0</ele>
<time>2026-09-04T06:29:15Z</time>
</trkpt>
<trkpt lat="45.485000000" lon="-71.003070000">
<ele>0</ele>
<time>2026-09-04T06:29:16Z</time>
</trkpt>
<trkpt lat="45.484590000" lon="-71.005030000">
<ele>0</ele>
<time>2026-09-04T06:29:17Z</time>
</trkpt>
<trkpt lat="45.484010000" lon="-71.006920000">
<ele>0</ele>
<time>2026-09-04T06:29:18Z</time>
</trkpt>
<trkpt lat="45.483690000" lon="-71.008290000">
<ele>0</ele>
<time>2026-09-04T06:29:19Z</time>
</trkpt>
<trkpt lat="45.483460000" lon="-71.009950000">
<ele>0</ele>
<time>2026-09-04T06:29:20Z</time>
</trkpt>
<trkpt lat="45.483330000" lon="-71.011450000">
<ele>0</ele>
<time>2026-09-04T06:29:21Z</time>
</trkpt>
<trkpt lat="45.483440000" lon="-71.014270000">
<ele>0</ele>
<time>2026-09-04T06:29:22Z</time>
</trkpt>
<trkpt lat="45.483480000" lon="-71.015880000">
<ele>0</ele>
<time>2026-09-04T06:29:23Z</time>
</trkpt>
<trkpt lat="45.483620000" lon="-71.017910000">
<ele>0</ele>
<time>2026-09-04T06:29:24Z</time>
</trkpt>
<trkpt lat="45.483630000" lon="-71.019970000">
<ele>0</ele>
<time>2026-09-04T06:29:25Z</time>
</trkpt>
<trkpt lat="45.483660000" lon="-71.021480000">
<ele>0</ele>
<time>2026-09-04T06:29:26Z</time>
</trkpt>
<trkpt lat="45.483580000" lon="-71.023720000">
<ele>0</ele>
<time>2026-09-04T06:29:27Z</time>
</trkpt>
<trkpt lat="45.483590000" lon="-71.025480000">
<ele>0</ele>
<time>2026-09-04T06:29:28Z</time>
</trkpt>
<trkpt lat="45.483660000" lon="-71.029130000">
<ele>0</ele>
<time>2026-09-04T06:29:29Z</time>
</trkpt>
<trkpt lat="45.483660000" lon="-71.029130000">
<ele>0</ele>
<time>2026-09-04T06:29:30Z</time>
</trkpt>
<trkpt lat="45.483710000" lon="-71.031560000">
<ele>0</ele>
<time>2026-09-04T06:29:31Z</time>
</trkpt>
<trkpt lat="45.483810000" lon="-71.033950000">
<ele>0</ele>
<time>2026-09-04T06:29:32Z</time>
</trkpt>
<trkpt lat="45.483910000" lon="-71.037940000">
<ele>0</ele>
<time>2026-09-04T06:29:33Z</time>
</trkpt>
<trkpt lat="45.484000000" lon="-71.043760000">
<ele>0</ele>
<time>2026-09-04T06:29:34Z</time>
</trkpt>
<trkpt lat="45.484080000" lon="-71.048040000">
<ele>0</ele>
<time>2026-09-04T06:29:35Z</time>
</trkpt>
<trkpt lat="45.484180000" lon="-71.049500000">
<ele>0</ele>
<time>2026-09-04T06:29:36Z</time>
</trkpt>
<trkpt lat="45.484430000" lon="-71.056870000">
<ele>0</ele>
<time>2026-09-04T06:29:37Z</time>
</trkpt>
<trkpt lat="45.484440000" lon="-71.058090000">
<ele>0</ele>
<time>2026-09-04T06:29:38Z</time>
</trkpt>
<trkpt lat="45.484440000" lon="-71.058090000">
<ele>0</ele>
<time>2026-09-04T06:29:39Z</time>
</trkpt>
<trkpt lat="45.484550000" lon="-71.073380000">
<ele>0</ele>
<time>2026-09-04T06:29:40Z</time>
</trkpt>
<trkpt lat="45.484550000" lon="-71.073380000">
<ele>0</ele>
<time>2026-09-04T06:29:41Z</time>
</trkpt>
<trkpt lat="45.484560000" lon="-71.074420000">
<ele>0</ele>
<time>2026-09-04T06:29:42Z</time>
</trkpt>
<trkpt lat="45.484010000" lon="-71.074400000">
<ele>0</ele>
<time>2026-09-04T06:29:43Z</time>
</trkpt>
<trkpt lat="45.484010000" lon="-71.074400000">
<ele>0</ele>
<time>2026-09-04T06:29:44Z</time>
</trkpt>
<trkpt lat="45.482450000" lon="-71.074330000">
<ele>0</ele>
<time>2026-09-04T06:29:45Z</time>
</trkpt>
<trkpt lat="45.480070000" lon="-71.074300000">
<ele>0</ele>
<time>2026-09-04T06:29:46Z</time>
</trkpt>
<trkpt lat="45.478350000" lon="-71.074200000">
<ele>0</ele>
<time>2026-09-04T06:29:47Z</time>
</trkpt>
<trkpt lat="45.478350000" lon="-71.074200000">
<ele>0</ele>
<time>2026-09-04T06:29:48Z</time>
</trkpt>
<trkpt lat="45.477450000" lon="-71.074140000">
<ele>0</ele>
<time>2026-09-04T06:29:49Z</time>
</trkpt>
<trkpt lat="45.475130000" lon="-71.074080000">
<ele>0</ele>
<time>2026-09-04T06:29:50Z</time>
</trkpt>
<trkpt lat="45.468400000" lon="-71.073910000">
<ele>0</ele>
<time>2026-09-04T06:29:51Z</time>
</trkpt>
<trkpt lat="45.463100000" lon="-71.073770000">
<ele>0</ele>
<time>2026-09-04T06:29:52Z</time>
</trkpt>
<trkpt lat="45.462950000" lon="-71.073840000">
<ele>0</ele>
<time>2026-09-04T06:29:53Z</time>
</trkpt>
<trkpt lat="45.462770000" lon="-71.072320000">
<ele>0</ele>
<time>2026-09-04T06:29:54Z</time>
</trkpt>
<trkpt lat="45.461940000" lon="-71.072290000">
<ele>0</ele>
<time>2026-09-04T06:29:55Z</time>
</trkpt>
<trkpt lat="45.461560000" lon="-71.072080000">
<ele>0</ele>
<time>2026-09-04T06:29:56Z</time>
</trkpt>
<trkpt lat="45.461410000" lon="-71.071960000">
<ele>0</ele>
<time>2026-09-04T06:29:57Z</time>
</trkpt>
</trkseg>
</trk>
</gpx>
